createdAt,value
2023-01-11T00:00:12.177Z,44.31
2023-01-11T00:01:12.161Z,43.02
2023-01-11T00:02:12.172Z,40.92
2023-01-11T00:03:12.141Z,40.76
2023-01-11T00:04:12.218Z,41.57
2023-01-11T00:05:12.107Z,40.76
2023-01-11T00:06:12.095Z,47.21
2023-01-11T00:07:12.085Z,40.60
2023-01-11T00:08:12.076Z,40.92
2023-01-11T00:09:12.083Z,41.41
2023-01-11T00:10:12.044Z,40.44
2023-01-11T00:11:12.051Z,40.92
2023-01-11T00:12:12.018Z,40.92
2023-01-11T00:13:12.016Z,42.21
2023-01-11T00:14:11.993Z,43.50
2023-01-11T00:15:11.980Z,41.08
2023-01-11T00:16:11.993Z,41.41
2023-01-11T00:17:11.969Z,41.08
2023-01-11T00:18:11.943Z,40.28
2023-01-11T00:19:11.952Z,40.76
2023-01-11T00:20:11.943Z,40.60
2023-01-11T00:21:11.905Z,40.76
2023-01-11T00:22:11.890Z,41.08
2023-01-11T00:23:11.875Z,40.28
2023-01-11T00:24:11.867Z,40.92
2023-01-11T00:25:11.876Z,41.73
2023-01-11T00:26:11.843Z,42.37
2023-01-11T00:27:11.824Z,40.60
2023-01-11T00:29:11.799Z,40.92
2023-01-11T00:30:11.784Z,40.76
2023-01-11T00:31:11.848Z,40.76
2023-01-11T00:32:11.761Z,40.92
2023-01-11T00:33:11.755Z,40.60
2023-01-11T00:34:11.740Z,40.28
2023-01-11T00:35:11.726Z,40.44
2023-01-11T00:36:11.708Z,41.41
2023-01-11T00:37:11.706Z,40.44
2023-01-11T00:38:11.681Z,40.60
2023-01-11T00:39:11.674Z,40.28
2023-01-11T00:40:11.661Z,40.92
2023-01-11T00:41:11.669Z,40.44
2023-01-11T00:42:11.660Z,40.28
2023-01-11T00:43:11.620Z,40.76
2023-01-11T00:44:11.607Z,42.37
2023-01-11T00:45:11.595Z,41.57
2023-01-11T00:46:11.682Z,41.41
2023-01-11T00:47:11.569Z,40.44
2023-01-11T00:48:11.575Z,40.76
2023-01-11T00:49:11.546Z,40.76
2023-01-11T00:50:11.537Z,40.76
2023-01-11T00:51:11.515Z,40.60
2023-01-11T00:52:11.501Z,41.08
2023-01-11T00:53:11.490Z,43.82
2023-01-11T00:54:11.476Z,40.76
2023-01-11T00:55:11.469Z,41.89
2023-01-11T00:56:11.456Z,40.76
2023-01-11T00:57:11.462Z,40.76
2023-01-11T00:58:11.427Z,41.41
2023-01-11T00:59:11.413Z,41.89
2023-01-11T01:00:11.398Z,41.89
2023-01-11T01:01:11.422Z,41.25
2023-01-11T01:02:11.494Z,41.08
2023-01-11T01:03:11.378Z,42.53
2023-01-11T01:04:11.347Z,40.76
2023-01-11T01:05:11.341Z,41.25
2023-01-11T01:06:11.325Z,40.76
2023-01-11T01:07:11.310Z,40.76
2023-01-11T01:08:11.300Z,41.89
2023-01-11T01:09:11.283Z,40.92
2023-01-11T01:10:11.270Z,40.92
2023-01-11T01:11:11.258Z,40.92
2023-01-11T01:12:11.245Z,40.44
2023-01-11T01:13:11.255Z,40.44
2023-01-11T01:14:11.218Z,40.76
2023-01-11T01:15:11.203Z,40.28
2023-01-11T01:16:11.238Z,40.76
2023-01-11T01:17:11.188Z,39.96
2023-01-11T01:18:11.171Z,40.12
2023-01-11T01:19:11.160Z,40.76
2023-01-11T01:20:11.143Z,40.28
2023-01-11T01:21:11.129Z,40.60
2023-01-11T01:22:11.122Z,41.08
2023-01-11T01:23:11.104Z,40.44
2023-01-11T01:24:11.091Z,41.73
2023-01-11T01:25:11.088Z,40.28
2023-01-11T01:26:11.068Z,43.02
2023-01-11T01:27:11.051Z,40.60
2023-01-11T01:28:11.038Z,41.89
2023-01-11T01:29:11.050Z,40.60
2023-01-11T01:30:11.016Z,40.76
2023-01-11T01:31:11.032Z,41.25
2023-01-11T01:32:10.986Z,40.76
2023-01-11T01:33:10.974Z,40.76
2023-01-11T01:34:10.962Z,40.28
2023-01-11T01:35:10.948Z,40.60
2023-01-11T01:36:10.936Z,41.41
2023-01-11T01:37:10.924Z,41.08
2023-01-11T01:38:10.916Z,40.76
2023-01-11T01:39:10.896Z,40.60
2023-01-11T01:40:10.884Z,40.92
2023-01-11T01:41:10.876Z,40.44
2023-01-11T01:42:10.857Z,40.60
2023-01-11T01:43:10.845Z,40.44
2023-01-11T01:44:10.831Z,40.12
2023-01-11T01:45:10.844Z,42.05
2023-01-11T01:46:10.870Z,41.25
2023-01-11T01:47:10.805Z,40.92
2023-01-11T01:48:10.781Z,40.92
2023-01-11T01:49:10.771Z,40.76
2023-01-11T01:50:10.776Z,40.60
2023-01-11T01:51:10.742Z,40.28
2023-01-11T01:52:10.733Z,40.28
2023-01-11T01:53:10.717Z,40.76
2023-01-11T01:54:10.701Z,40.92
2023-01-11T01:55:10.689Z,40.60
2023-01-11T01:56:10.677Z,40.76
2023-01-11T01:57:10.672Z,41.73
2023-01-11T01:58:10.650Z,40.44
2023-01-11T01:59:10.637Z,40.28
2023-01-11T02:00:10.636Z,40.28
2023-01-11T02:01:10.636Z,40.60
2023-01-11T02:02:10.598Z,44.31
2023-01-11T02:03:10.620Z,40.76
2023-01-11T02:04:10.586Z,43.66
2023-01-11T02:05:10.560Z,40.12
2023-01-11T02:06:10.545Z,44.31
2023-01-11T02:07:10.535Z,40.92
2023-01-11T02:08:10.529Z,41.08
2023-01-11T02:09:10.511Z,41.41
2023-01-11T02:10:10.505Z,41.08
2023-01-11T02:11:10.482Z,40.92
2023-01-11T02:12:10.500Z,41.57
2023-01-11T02:13:10.468Z,41.73
2023-01-11T02:14:10.445Z,40.92
2023-01-11T02:15:10.431Z,43.34
2023-01-11T02:16:10.477Z,41.25
2023-01-11T02:17:10.432Z,40.76
2023-01-11T02:18:10.393Z,42.21
2023-01-11T02:19:10.379Z,40.44
2023-01-11T02:20:10.391Z,41.08
2023-01-11T02:21:10.353Z,40.92
2023-01-11T02:22:10.338Z,41.25
2023-01-11T02:23:10.334Z,40.76
2023-01-11T02:24:10.328Z,40.28
2023-01-11T02:25:10.303Z,41.41
2023-01-11T02:26:10.285Z,40.76
2023-01-11T02:27:10.275Z,40.28
2023-01-11T02:28:10.262Z,41.73
2023-01-11T02:29:10.256Z,40.60
2023-01-11T02:30:10.235Z,41.57
2023-01-11T02:31:10.275Z,40.28
2023-01-11T02:32:10.220Z,40.60
2023-01-11T02:33:10.223Z,41.08
2023-01-11T02:34:10.187Z,40.28
2023-01-11T02:35:10.170Z,40.44
2023-01-11T02:36:10.161Z,40.92
2023-01-11T02:37:10.145Z,40.92
2023-01-11T02:38:10.137Z,48.01
2023-01-11T02:39:10.124Z,41.25
2023-01-11T02:40:10.104Z,41.89
2023-01-11T02:41:10.111Z,41.73
2023-01-11T02:42:10.083Z,41.08
2023-01-11T02:43:10.086Z,40.60
2023-01-11T02:44:10.054Z,41.57
2023-01-11T02:45:10.045Z,41.57
2023-01-11T02:46:10.089Z,41.08
2023-01-11T02:47:10.018Z,44.31
2023-01-11T02:48:10.003Z,43.66
2023-01-11T02:49:10.019Z,41.89
2023-01-11T02:50:09.987Z,40.76
2023-01-11T02:51:10.002Z,42.53
2023-01-11T02:52:09.950Z,41.89
2023-01-11T02:53:09.939Z,42.21
2023-01-11T02:54:09.959Z,42.53
2023-01-11T02:55:09.914Z,42.70
2023-01-11T02:56:09.902Z,41.25
2023-01-11T02:57:09.888Z,42.21
2023-01-11T02:58:09.882Z,43.50
2023-01-11T02:59:09.863Z,42.53
2023-01-11T03:00:09.847Z,45.76
2023-01-11T03:01:09.835Z,41.89
2023-01-11T03:02:09.852Z,41.57
2023-01-11T03:03:09.878Z,41.57
2023-01-11T03:04:09.797Z,41.41
2023-01-11T03:05:09.807Z,42.86
2023-01-11T03:06:09.769Z,42.05
2023-01-11T03:07:09.763Z,40.76
2023-01-11T03:08:09.753Z,43.50
2023-01-11T03:09:09.742Z,40.92
2023-01-11T03:10:09.725Z,41.73
2023-01-11T03:11:09.708Z,41.41
2023-01-11T03:12:09.697Z,42.21
2023-01-11T03:13:09.687Z,41.57
2023-01-11T03:14:09.672Z,41.41
2023-01-11T03:15:09.659Z,41.57
2023-01-11T03:16:09.722Z,42.05
2023-01-11T03:17:09.646Z,42.53
2023-01-11T03:18:09.616Z,48.66
2023-01-11T03:19:09.604Z,45.43
2023-01-11T03:20:09.597Z,45.60
2023-01-11T03:21:09.600Z,43.34
2023-01-11T03:22:09.563Z,43.98
2023-01-11T03:23:09.556Z,43.50
2023-01-11T03:24:09.535Z,43.82
2023-01-11T03:25:09.525Z,42.21
2023-01-11T03:26:09.520Z,42.37
2023-01-11T03:27:09.527Z,41.41
2023-01-11T03:28:09.485Z,41.89
2023-01-11T03:29:09.485Z,41.89
2023-01-11T03:30:09.470Z,42.21
2023-01-11T03:31:09.489Z,41.41
2023-01-11T03:32:09.439Z,43.18
2023-01-11T03:33:09.420Z,42.70
2023-01-11T03:34:09.410Z,42.05
2023-01-11T03:35:09.396Z,41.57
2023-01-11T03:36:09.383Z,41.41
2023-01-11T03:37:09.397Z,42.21
2023-01-11T03:38:09.359Z,43.66
2023-01-11T03:39:09.346Z,42.37
2023-01-11T03:40:09.333Z,42.70
2023-01-11T03:41:09.340Z,46.88
2023-01-11T03:42:09.307Z,47.05
2023-01-11T03:43:09.294Z,44.31
2023-01-11T03:44:09.283Z,42.05
2023-01-11T03:45:09.266Z,42.37
2023-01-11T03:46:09.259Z,43.98
2023-01-11T03:47:09.258Z,46.56
2023-01-11T03:48:09.235Z,45.11
2023-01-11T03:49:09.220Z,43.02
2023-01-11T03:50:09.205Z,44.15
2023-01-11T03:51:09.196Z,42.86
2023-01-11T03:52:09.179Z,48.66
2023-01-11T03:53:09.193Z,43.18
2023-01-11T03:54:09.172Z,43.98
2023-01-11T03:55:09.146Z,44.47
2023-01-11T03:56:09.130Z,43.34
2023-01-11T03:57:09.116Z,43.50
2023-01-11T03:58:09.193Z,45.11
2023-01-11T03:59:09.101Z,46.08
2023-01-11T04:00:09.100Z,43.34
2023-01-11T04:01:09.126Z,50.59
2023-01-11T04:02:09.058Z,45.27
2023-01-11T04:03:09.042Z,43.34
2023-01-11T04:04:09.112Z,44.15
2023-01-11T04:05:09.024Z,45.11
2023-01-11T04:06:09.010Z,45.11
2023-01-11T04:07:08.994Z,48.66
2023-01-11T04:08:08.983Z,44.15
2023-01-11T04:09:08.996Z,43.34
2023-01-11T04:10:08.961Z,43.82
2023-01-11T04:11:08.942Z,44.47
2023-01-11T04:12:08.930Z,47.37
2023-01-11T04:13:08.917Z,49.95
2023-01-11T04:14:08.905Z,43.98
2023-01-11T04:15:08.892Z,44.31
2023-01-11T04:16:08.971Z,46.40
2023-01-11T04:17:08.867Z,45.43
2023-01-11T04:18:08.853Z,45.43
2023-01-11T04:19:08.843Z,46.88
2023-01-11T04:20:08.834Z,48.66
2023-01-11T04:21:08.839Z,45.43
2023-01-11T04:22:08.801Z,43.82
2023-01-11T04:23:08.794Z,45.27
2023-01-11T04:24:08.793Z,45.27
2023-01-11T04:25:08.819Z,44.15
2023-01-11T04:26:08.758Z,45.60
2023-01-11T04:27:08.748Z,45.27
2023-01-11T04:28:08.728Z,43.18
2023-01-11T04:29:08.720Z,43.82
2023-01-11T04:30:08.702Z,45.76
2023-01-11T04:31:08.740Z,50.59
2023-01-11T04:32:08.678Z,45.76
2023-01-11T04:33:08.665Z,46.24
2023-01-11T04:34:08.657Z,45.43
2023-01-11T04:35:08.638Z,45.92
2023-01-11T04:36:08.678Z,46.88
2023-01-11T04:37:08.621Z,44.31
2023-01-11T04:38:08.623Z,47.21
2023-01-11T04:39:08.588Z,46.72
2023-01-11T04:40:08.578Z,46.40
2023-01-11T04:41:08.593Z,45.11
2023-01-11T04:42:08.552Z,45.43
2023-01-11T04:43:08.542Z,45.11
2023-01-11T04:44:08.545Z,46.72
2023-01-11T04:45:08.526Z,44.15
2023-01-11T04:46:08.578Z,46.40
2023-01-11T04:47:08.489Z,48.17
2023-01-11T04:48:08.485Z,47.53
2023-01-11T04:49:08.464Z,42.86
2023-01-11T04:50:08.531Z,47.85
2023-01-11T04:51:08.441Z,45.43
2023-01-11T04:52:08.429Z,49.14
2023-01-11T04:53:08.428Z,46.88
2023-01-11T04:54:08.403Z,46.40
2023-01-11T04:55:08.390Z,44.95
2023-01-11T04:56:08.378Z,46.56
2023-01-11T04:57:08.387Z,44.63
2023-01-11T04:58:08.365Z,44.15
2023-01-11T04:59:08.339Z,46.72
2023-01-11T05:00:08.336Z,44.95
2023-01-11T05:01:08.405Z,45.60
2023-01-11T05:02:08.313Z,45.92
2023-01-11T05:03:08.292Z,45.60
2023-01-11T05:04:08.354Z,46.88
2023-01-11T05:05:08.266Z,49.46
2023-01-11T05:06:08.268Z,44.79
2023-01-11T05:07:08.240Z,46.56
2023-01-11T05:08:08.231Z,45.60
2023-01-11T05:09:08.215Z,45.27
2023-01-11T05:10:08.204Z,46.08
2023-01-11T05:11:08.239Z,45.27
2023-01-11T05:12:08.213Z,45.11
2023-01-11T05:13:08.205Z,48.66
2023-01-11T05:14:08.154Z,45.60
2023-01-11T05:15:08.138Z,45.27
2023-01-11T05:16:08.182Z,48.50
2023-01-11T05:17:08.113Z,48.33
2023-01-11T05:18:08.104Z,47.37
2023-01-11T05:19:08.088Z,48.82
2023-01-11T05:20:08.075Z,46.88
2023-01-11T05:21:08.063Z,47.69
2023-01-11T05:22:08.051Z,45.43
2023-01-11T05:23:08.042Z,46.72
2023-01-11T05:24:08.027Z,47.37
2023-01-11T05:25:08.012Z,46.72
2023-01-11T05:26:07.997Z,49.14
2023-01-11T05:27:07.987Z,47.37
2023-01-11T05:28:07.980Z,46.72
2023-01-11T05:29:07.997Z,45.76
2023-01-11T05:30:07.953Z,46.08
2023-01-11T05:31:07.932Z,44.95
2023-01-11T05:32:07.921Z,48.17
2023-01-11T05:33:07.914Z,46.88
2023-01-11T05:34:07.905Z,48.33
2023-01-11T05:35:07.881Z,46.08
2023-01-11T05:36:07.883Z,45.92
2023-01-11T05:37:07.855Z,45.92
2023-01-11T05:38:07.843Z,50.75
2023-01-11T05:39:07.826Z,47.53
2023-01-11T05:40:07.824Z,50.27
2023-01-11T05:41:07.801Z,53.49
2023-01-11T05:42:07.788Z,50.11
2023-01-11T05:43:07.776Z,50.27
2023-01-11T05:44:07.771Z,49.14
2023-01-11T05:45:07.772Z,50.11
2023-01-11T05:46:07.853Z,49.30
2023-01-11T05:47:07.732Z,49.79
2023-01-11T05:48:07.711Z,48.82
2023-01-11T05:49:07.697Z,49.46
2023-01-11T05:50:07.689Z,48.50
2023-01-11T05:51:07.667Z,47.69
2023-01-11T05:52:07.653Z,48.66
2023-01-11T05:53:07.641Z,51.56
2023-01-11T05:54:07.630Z,50.59
2023-01-11T05:55:07.613Z,51.07
2023-01-11T05:56:07.602Z,48.17
2023-01-11T05:57:07.590Z,51.24
2023-01-11T05:58:07.577Z,49.62
2023-01-11T05:59:07.561Z,52.36
2023-01-11T06:00:07.554Z,50.75
2023-01-11T06:01:07.560Z,48.17
2023-01-11T06:02:07.673Z,47.85
2023-01-11T06:03:07.572Z,50.43
2023-01-11T06:04:07.493Z,50.11
2023-01-11T06:05:07.482Z,49.79
2023-01-11T06:06:07.473Z,48.17
2023-01-11T06:07:07.453Z,50.75
2023-01-11T06:08:07.448Z,51.88
2023-01-11T06:09:07.426Z,53.17
2023-01-11T06:10:07.411Z,52.69
2023-01-11T06:11:07.399Z,51.88
2023-01-11T06:12:07.387Z,55.42
2023-01-11T06:13:07.374Z,51.07
2023-01-11T06:14:07.358Z,51.07
2023-01-11T06:15:07.347Z,51.72
2023-01-11T06:16:07.343Z,51.40
2023-01-11T06:17:07.351Z,51.72
2023-01-11T06:18:07.306Z,53.97
2023-01-11T06:19:07.292Z,53.65
2023-01-11T06:20:07.279Z,54.78
2023-01-11T06:21:07.265Z,52.52
2023-01-11T06:22:07.255Z,51.40
2023-01-11T06:23:07.242Z,52.20
2023-01-11T06:24:07.260Z,53.81
2023-01-11T06:25:07.215Z,53.49
2023-01-11T06:26:07.209Z,50.43
2023-01-11T06:27:07.192Z,50.75
2023-01-11T06:28:07.176Z,54.30
2023-01-11T06:29:07.164Z,53.81
2023-01-11T06:30:07.151Z,53.33
2023-01-11T06:31:07.221Z,51.07
2023-01-11T06:32:07.129Z,51.88
2023-01-11T06:33:07.136Z,49.14
2023-01-11T06:34:07.098Z,49.95
2023-01-11T06:35:07.091Z,49.62
2023-01-11T06:36:07.080Z,49.95
2023-01-11T06:37:07.056Z,54.14
2023-01-11T06:38:07.045Z,58.16
2023-01-11T06:39:07.030Z,60.26
2023-01-11T06:40:07.019Z,52.85
2023-01-11T06:41:07.003Z,57.36
2023-01-11T06:42:06.997Z,57.04
2023-01-11T06:43:06.981Z,57.52
2023-01-11T06:44:06.978Z,53.33
2023-01-11T06:45:06.953Z,53.17
2023-01-11T06:46:07.032Z,50.59
2023-01-11T06:48:06.916Z,49.79
2023-01-11T06:49:06.922Z,49.46
2023-01-11T06:50:06.909Z,52.36
2023-01-11T06:51:06.874Z,53.81
2023-01-11T06:52:06.868Z,55.26
2023-01-11T06:53:06.850Z,63.00
2023-01-11T06:54:06.839Z,53.01
2023-01-11T06:55:06.842Z,51.07
2023-01-11T06:56:06.821Z,48.66
2023-01-11T06:57:06.810Z,49.14
2023-01-11T06:58:06.791Z,49.62
2023-01-11T06:59:06.780Z,50.75
2023-01-11T07:00:06.763Z,48.50
2023-01-11T07:01:06.794Z,48.33
2023-01-11T07:02:06.738Z,48.17
2023-01-11T07:03:06.743Z,48.66
2023-01-11T07:04:06.717Z,49.46
2023-01-11T07:05:06.749Z,48.98
2023-01-11T07:06:06.688Z,49.30
2023-01-11T07:07:06.671Z,48.82
2023-01-11T07:08:06.663Z,48.98
2023-01-11T07:09:06.652Z,48.50
2023-01-11T07:10:06.637Z,48.01
2023-01-11T07:11:06.679Z,48.33
2023-01-11T07:12:06.611Z,46.56
2023-01-11T07:13:06.598Z,47.05
2023-01-11T07:14:06.598Z,48.50
2023-01-11T07:15:06.571Z,49.95
2023-01-11T07:16:06.677Z,54.14
2023-01-11T07:17:06.546Z,50.91
2023-01-11T07:18:06.539Z,48.01
2023-01-11T07:19:06.528Z,51.40
2023-01-11T07:20:06.518Z,50.43
2023-01-11T07:21:06.531Z,53.01
2023-01-11T07:22:06.487Z,53.97
2023-01-11T07:23:06.476Z,52.36
2023-01-11T07:24:06.460Z,55.75
2023-01-11T07:25:06.446Z,56.39
2023-01-11T07:26:06.530Z,59.61
2023-01-11T07:27:06.423Z,58.97
2023-01-11T07:28:06.409Z,56.07
2023-01-11T07:29:06.397Z,52.69
2023-01-11T07:30:07.917Z,53.33
2023-01-11T07:31:06.403Z,57.84
2023-01-11T07:32:06.361Z,58.16
2023-01-11T07:33:06.377Z,52.85
2023-01-11T07:34:06.336Z,51.72
2023-01-11T07:35:06.326Z,53.97
2023-01-11T07:36:06.352Z,50.27
2023-01-11T07:37:06.323Z,52.69
2023-01-11T07:38:06.284Z,60.10
2023-01-11T07:39:06.276Z,48.98
2023-01-11T07:40:06.264Z,53.81
2023-01-11T07:41:06.247Z,52.85
2023-01-11T07:42:06.235Z,54.62
2023-01-11T07:43:06.224Z,52.20
2023-01-11T07:44:06.207Z,53.49
2023-01-11T07:45:06.202Z,54.30
2023-01-11T07:46:06.334Z,49.95
2023-01-11T07:47:06.252Z,50.59
2023-01-11T07:48:06.158Z,51.24
2023-01-11T07:49:06.152Z,51.88
2023-01-11T07:50:06.133Z,53.33
2023-01-11T07:51:06.121Z,52.52
2023-01-11T07:52:06.108Z,51.56
2023-01-11T07:53:06.124Z,51.24
2023-01-11T07:54:06.083Z,52.36
2023-01-11T07:55:06.069Z,57.52
2023-01-11T07:56:06.066Z,52.20
2023-01-11T07:57:06.052Z,51.07
2023-01-11T07:58:06.025Z,48.82
2023-01-11T07:59:06.018Z,52.20
2023-01-11T08:00:06.009Z,53.65
2023-01-11T08:01:05.991Z,52.85
2023-01-11T08:02:05.977Z,53.65
2023-01-11T08:03:06.075Z,55.26
2023-01-11T08:04:05.955Z,54.78
2023-01-11T08:05:05.944Z,54.14
2023-01-11T08:06:05.927Z,56.23
2023-01-11T08:07:05.913Z,57.04
2023-01-11T08:08:05.920Z,54.62
2023-01-11T08:09:05.965Z,62.03
2023-01-11T08:10:05.896Z,55.59
2023-01-11T08:11:05.876Z,63.32
2023-01-11T08:12:05.847Z,54.46
2023-01-11T08:13:05.844Z,58.33
2023-01-11T08:14:05.849Z,56.87
2023-01-11T08:15:05.815Z,52.85
2023-01-11T08:16:05.910Z,55.91
2023-01-11T08:17:05.785Z,54.30
2023-01-11T08:18:05.897Z,54.30
2023-01-11T08:19:05.759Z,52.36
2023-01-11T08:20:05.752Z,58.00
2023-01-11T08:21:05.734Z,50.27
2023-01-11T08:22:05.719Z,49.46
2023-01-11T08:23:05.712Z,50.59
2023-01-11T08:24:05.694Z,50.91
2023-01-11T08:25:05.716Z,51.24
2023-01-11T08:26:05.673Z,50.11
2023-01-11T08:27:05.751Z,50.91
2023-01-11T08:28:05.641Z,51.88
2023-01-11T08:30:05.641Z,51.24
2023-01-11T08:31:05.675Z,56.39
2023-01-11T08:32:05.591Z,56.87
2023-01-11T08:33:05.606Z,52.20
2023-01-11T08:34:05.566Z,54.78
2023-01-11T08:35:05.555Z,49.79
2023-01-11T08:36:05.548Z,51.40
2023-01-11T08:37:05.525Z,62.03
2023-01-11T08:38:05.521Z,52.04
2023-01-11T08:39:05.509Z,56.87
2023-01-11T08:40:05.495Z,56.87
2023-01-11T08:41:05.502Z,55.10
2023-01-11T08:42:05.457Z,56.87
2023-01-11T08:43:05.455Z,53.97
2023-01-11T08:44:05.442Z,53.49
2023-01-11T08:45:05.430Z,54.78
2023-01-11T08:46:05.436Z,63.32
2023-01-11T08:47:05.398Z,57.52
2023-01-11T08:48:05.382Z,55.75
2023-01-11T08:49:05.371Z,55.59
2023-01-11T08:50:05.355Z,55.10
2023-01-11T08:51:05.347Z,54.14
2023-01-11T08:52:05.331Z,53.01
2023-01-11T08:53:05.314Z,55.10
2023-01-11T08:54:05.306Z,52.85
2023-01-11T08:55:05.302Z,57.84
2023-01-11T08:56:05.276Z,55.91
2023-01-11T08:57:05.359Z,52.85
2023-01-11T08:58:05.249Z,50.75
2023-01-11T08:59:05.246Z,50.91
2023-01-11T09:00:05.223Z,52.36
2023-01-11T09:01:05.215Z,51.07
2023-01-11T09:02:05.201Z,50.27
2023-01-11T09:03:05.258Z,50.43
2023-01-11T09:04:19.193Z,54.78
2023-01-11T09:05:07.156Z,50.91
2023-01-11T09:06:05.143Z,49.79
2023-01-11T09:07:05.130Z,50.91
2023-01-11T09:08:05.133Z,51.07
2023-01-11T09:09:05.104Z,52.36
2023-01-11T09:10:05.101Z,53.01
2023-01-11T09:11:05.072Z,51.40
2023-01-11T09:12:05.960Z,51.72
2023-01-11T09:13:05.088Z,50.27
2023-01-11T09:14:05.045Z,53.81
2023-01-11T09:15:05.027Z,51.88
2023-01-11T09:16:05.085Z,62.84
2023-01-11T09:17:05.006Z,60.90
2023-01-11T09:18:04.984Z,58.65
2023-01-11T09:19:04.968Z,59.61
2023-01-11T09:20:04.955Z,57.68
2023-01-11T09:21:04.944Z,67.19
2023-01-11T09:22:04.947Z,50.27
2023-01-11T09:23:04.921Z,53.33
2023-01-11T09:24:04.900Z,52.20
2023-01-11T09:25:04.890Z,55.91
2023-01-11T09:26:04.882Z,54.14
2023-01-11T09:27:05.019Z,49.95
2023-01-11T09:28:04.852Z,52.36
2023-01-11T09:29:04.899Z,51.07
2023-01-11T09:30:05.604Z,54.46
2023-01-11T09:31:04.844Z,61.23
2023-01-11T09:32:04.800Z,61.87
2023-01-11T09:33:04.788Z,53.97
2023-01-11T09:34:04.793Z,56.07
2023-01-11T09:35:04.760Z,59.45
2023-01-11T09:36:04.749Z,52.52
2023-01-11T09:37:04.743Z,56.39
2023-01-11T09:38:04.714Z,62.19
2023-01-11T09:39:04.703Z,56.71
2023-01-11T09:40:04.686Z,56.55
2023-01-11T09:41:04.678Z,55.42
2023-01-11T09:42:04.662Z,55.42
2023-01-11T09:43:04.651Z,57.04
2023-01-11T09:44:04.712Z,51.40
2023-01-11T09:45:04.672Z,53.01
2023-01-11T09:46:06.760Z,64.93
2023-01-11T09:47:04.617Z,53.01
2023-01-11T09:48:04.606Z,52.20
2023-01-11T09:49:04.571Z,53.81
2023-01-11T09:50:04.583Z,50.91
2023-01-11T09:51:04.586Z,49.62
2023-01-11T09:52:04.526Z,49.95
2023-01-11T09:53:04.517Z,52.04
2023-01-11T09:54:04.500Z,56.07
2023-01-11T09:55:04.499Z,51.72
2023-01-11T09:56:04.475Z,50.11
2023-01-11T09:57:04.463Z,52.69
2023-01-11T09:58:04.448Z,56.07
2023-01-11T09:59:04.436Z,51.56
2023-01-11T10:00:04.428Z,51.88
2023-01-11T10:01:04.578Z,51.07
2023-01-11T10:02:04.395Z,53.97
2023-01-11T10:03:04.385Z,50.75
2023-01-11T10:04:04.374Z,56.71
2023-01-11T10:05:04.473Z,53.01
2023-01-11T10:06:04.344Z,55.91
2023-01-11T10:07:04.331Z,61.71
2023-01-11T10:18:30.455Z,52.36
2023-01-11T10:18:33.479Z,50.43
2023-01-11T10:18:33.759Z,56.39
2023-01-11T10:18:39.531Z,52.69
2023-01-11T10:18:43.011Z,52.52
2023-01-11T10:19:31.532Z,50.75
2023-01-11T10:20:06.264Z,53.65
2023-01-11T10:21:04.141Z,51.72
2023-01-11T10:22:04.125Z,52.69
2023-01-11T10:23:04.116Z,50.27
2023-01-11T10:24:04.103Z,51.07
2023-01-11T10:25:04.094Z,53.17
2023-01-11T10:26:04.083Z,52.20
2023-01-11T10:27:04.269Z,49.95
2023-01-11T10:28:04.045Z,48.33
2023-01-11T10:29:04.039Z,48.01
2023-01-11T10:30:04.037Z,48.82
2023-01-11T10:31:04.134Z,50.11
2023-01-11T10:32:04.000Z,48.50
2023-01-11T10:33:04.003Z,49.14
2023-01-11T10:34:03.982Z,48.66
2023-01-11T10:35:03.959Z,48.17
2023-01-11T10:36:03.940Z,47.85
2023-01-11T10:37:03.950Z,46.88
2023-01-11T10:38:03.917Z,47.85
2023-01-11T10:39:03.906Z,47.53
2023-01-11T10:40:03.890Z,48.66
2023-01-11T10:41:03.879Z,46.40
2023-01-11T10:42:03.861Z,49.14
2023-01-11T10:44:03.845Z,49.95
2023-01-11T10:45:03.825Z,49.46
2023-01-11T10:46:03.886Z,49.62
2023-01-11T10:47:03.802Z,51.07
2023-01-11T10:48:03.785Z,49.95
2023-01-11T10:49:03.807Z,48.17
2023-01-11T10:50:06.120Z,47.85
2023-01-11T10:51:03.751Z,49.46
2023-01-11T10:52:03.734Z,49.14
2023-01-11T10:53:03.722Z,48.98
2023-01-11T10:54:06.881Z,48.33
2023-01-11T10:55:03.697Z,51.88
2023-01-11T10:56:03.691Z,48.01
2023-01-11T10:57:05.320Z,50.43
2023-01-11T10:58:03.922Z,49.14
2023-01-11T10:59:03.653Z,50.59
2023-01-11T11:00:03.629Z,50.27
2023-01-11T11:01:03.761Z,50.91
2023-01-11T11:02:03.642Z,50.75
2023-01-11T11:03:03.597Z,49.14
2023-01-11T11:04:03.584Z,50.43
2023-01-11T11:05:03.694Z,49.46
2023-01-11T11:06:03.553Z,51.56
2023-01-11T11:07:03.543Z,49.79
2023-01-11T11:08:03.528Z,48.82
2023-01-11T11:09:03.524Z,49.14
2023-01-11T11:10:03.502Z,49.30
2023-01-11T11:11:03.489Z,47.85
2023-01-11T11:12:03.477Z,53.65
2023-01-11T11:13:03.464Z,48.82
2023-01-11T11:14:03.449Z,51.56
2023-01-11T11:15:03.444Z,49.14
2023-01-11T11:16:03.468Z,48.98
2023-01-11T11:17:03.439Z,49.14
2023-01-11T11:18:03.399Z,48.33
2023-01-11T11:19:03.387Z,46.88
2023-01-11T11:20:03.371Z,50.11
2023-01-11T11:21:03.388Z,49.79
2023-01-11T11:22:03.352Z,49.46
2023-01-11T11:23:03.338Z,47.37
2023-01-11T11:24:03.322Z,50.43
2023-01-11T11:25:03.319Z,47.69
2023-01-11T11:26:03.294Z,48.82
2023-01-11T11:27:03.399Z,47.85
2023-01-11T11:28:03.268Z,50.43
2023-01-11T11:29:03.258Z,49.14
2023-01-11T11:30:03.249Z,52.20
2023-01-11T11:31:03.244Z,47.85
2023-01-11T11:32:03.437Z,49.14
2023-01-11T11:33:03.222Z,49.79
2023-01-11T11:34:03.192Z,48.17
2023-01-11T11:35:03.182Z,49.46
2023-01-11T11:36:03.171Z,47.53
2023-01-11T11:37:03.184Z,47.85
2023-01-11T11:38:03.145Z,48.33
2023-01-11T11:39:03.128Z,48.66
2023-01-11T11:40:03.116Z,49.46
2023-01-11T11:41:03.106Z,48.82
2023-01-11T11:42:03.087Z,49.46
2023-01-11T11:43:03.074Z,50.75
2023-01-11T11:44:03.061Z,48.01
2023-01-11T11:45:03.071Z,50.11
2023-01-11T11:46:03.123Z,50.91
2023-01-11T11:47:03.035Z,50.43
2023-01-11T11:48:03.007Z,50.75
2023-01-11T11:49:02.997Z,50.27
2023-01-11T11:50:02.985Z,49.62
2023-01-11T11:51:02.994Z,49.30
2023-01-11T11:52:02.963Z,54.94
2023-01-11T11:53:02.999Z,55.59
2023-01-11T11:54:02.943Z,51.24
2023-01-11T11:55:02.922Z,49.79
2023-01-11T11:56:02.905Z,50.91
2023-01-11T11:57:02.895Z,50.59
2023-01-11T11:58:02.880Z,54.94
2023-01-11T11:59:02.886Z,51.07
2023-01-11T12:00:02.857Z,57.20
2023-01-11T12:01:02.843Z,52.69
2023-01-11T12:02:02.877Z,51.56
2023-01-11T12:03:02.826Z,52.36
2023-01-11T12:04:02.804Z,61.06
2023-01-11T12:05:02.872Z,50.27
2023-01-11T12:06:02.781Z,50.11
2023-01-11T12:07:02.765Z,48.98
2023-01-11T12:08:02.754Z,48.66
2023-01-11T12:09:02.778Z,49.95
2023-01-11T12:10:02.728Z,49.62
2023-01-11T12:11:02.751Z,53.17
2023-01-11T12:12:02.713Z,65.41
2023-01-11T12:13:02.682Z,51.24
2023-01-11T12:14:02.676Z,50.59
2023-01-11T12:15:02.660Z,54.94
2023-01-11T12:16:02.656Z,50.11
2023-01-11T12:17:02.654Z,50.11
2023-01-11T12:18:02.623Z,48.66
2023-01-11T12:19:02.622Z,50.91
2023-01-11T12:20:02.625Z,48.66
2023-01-11T12:21:02.578Z,49.14
2023-01-11T12:22:02.572Z,48.66
2023-01-11T12:23:02.555Z,49.95
2023-01-11T12:24:02.545Z,49.46
2023-01-11T12:25:02.582Z,48.66
2023-01-11T12:26:02.522Z,48.66
2023-01-11T12:27:02.547Z,47.05
2023-01-11T12:28:02.506Z,49.79
2023-01-11T12:29:02.481Z,49.79
2023-01-11T12:30:02.465Z,50.43
2023-01-11T12:31:02.592Z,52.85
2023-01-11T12:32:02.438Z,51.72
2023-01-11T12:33:02.430Z,47.53
2023-01-11T12:34:02.418Z,51.40
2023-01-11T12:35:02.411Z,48.17
2023-01-11T12:36:03.389Z,48.66
2023-01-11T12:37:02.376Z,50.11
2023-01-11T12:38:02.363Z,47.69
2023-01-11T12:39:02.348Z,51.24
2023-01-11T12:40:02.338Z,48.98
2023-01-11T12:41:02.352Z,48.33
2023-01-11T12:42:02.311Z,49.30
2023-01-11T12:43:02.297Z,48.98
2023-01-11T12:44:02.284Z,55.26
2023-01-11T12:45:02.286Z,47.85
2023-01-11T12:46:02.322Z,47.05
2023-01-11T12:47:02.243Z,48.17
2023-01-11T12:48:02.235Z,50.27
2023-01-11T12:49:02.219Z,48.66
2023-01-11T12:51:02.206Z,48.50
2023-01-11T12:52:02.186Z,48.66
2023-01-11T12:53:02.169Z,49.62
2023-01-11T12:54:02.155Z,48.50
2023-01-11T12:55:02.141Z,48.17
2023-01-11T12:56:02.141Z,48.17
2023-01-11T12:57:02.148Z,46.72
2023-01-11T12:58:02.110Z,49.79
2023-01-11T12:59:02.089Z,46.88
2023-01-11T13:00:02.090Z,47.85
2023-01-11T13:01:02.130Z,48.01
2023-01-11T13:02:02.131Z,51.56
2023-01-11T13:03:02.040Z,46.08